createdAt,value
2022-11-28T00:01:24.127Z,6.09
2022-11-28T00:03:51.091Z,6.05
2022-11-28T00:06:18.061Z,6.01
2022-11-28T00:08:45.195Z,5.94
2022-11-28T00:11:13.523Z,5.93
2022-11-28T00:13:40.588Z,5.96
2022-11-28T00:16:09.184Z,5.97
2022-11-28T00:18:35.939Z,6.08
2022-11-28T00:21:05.560Z,6.03
2022-11-28T00:23:33.143Z,5.99
2022-11-28T00:26:01.613Z,6.05
2022-11-28T00:28:28.429Z,6.00
2022-11-28T00:30:54.844Z,6.03
2022-11-28T00:33:21.648Z,6.01
2022-11-28T00:35:48.094Z,5.98
2022-11-28T00:38:14.513Z,5.97
2022-11-28T00:40:41.004Z,6.03
2022-11-28T00:43:07.418Z,6.02
2022-11-28T00:45:33.850Z,6.17
2022-11-28T00:48:00.340Z,6.23
2022-11-28T00:50:26.911Z,6.13
2022-11-28T00:52:53.427Z,6.31
2022-11-28T00:55:19.798Z,6.28
2022-11-28T00:57:46.497Z,6.20
2022-11-28T01:00:13.497Z,6.29
2022-11-28T01:02:39.918Z,6.33
2022-11-28T01:05:06.876Z,6.27
2022-11-28T01:07:34.052Z,6.35
2022-11-28T01:10:00.488Z,6.57
2022-11-28T01:12:26.884Z,6.59
2022-11-28T01:14:53.734Z,6.41
2022-11-28T01:17:20.075Z,6.48
2022-11-28T01:19:46.468Z,6.24
2022-11-28T01:22:12.865Z,6.22
2022-11-28T01:24:39.582Z,6.21
2022-11-28T01:27:06.271Z,6.16
2022-11-28T01:29:32.662Z,6.03
2022-11-28T01:31:59.219Z,6.07
2022-11-28T01:34:25.618Z,6.09
2022-11-28T01:36:52.012Z,5.98
2022-11-28T01:39:18.455Z,6.01
2022-11-28T01:41:45.995Z,5.99
2022-11-28T01:44:15.063Z,6.10
2022-11-28T01:46:42.310Z,6.02
2022-11-28T01:49:13.757Z,6.14
2022-11-28T01:51:45.059Z,6.03
2022-11-28T01:54:12.902Z,5.91
2022-11-28T01:56:55.295Z,6.01
2022-11-28T01:59:26.412Z,6.03
2022-11-28T02:01:53.077Z,6.07
2022-11-28T02:04:20.270Z,5.98
2022-11-28T02:06:46.609Z,6.01
2022-11-28T02:09:16.055Z,6.01
2022-11-28T02:11:57.099Z,6.04
2022-11-28T02:14:57.572Z,5.89
2022-11-28T02:17:35.807Z,5.93
2022-11-28T02:20:36.007Z,5.91
2022-11-28T02:23:36.246Z,5.91
2022-11-28T02:26:12.888Z,5.98
2022-11-28T02:29:15.554Z,5.98
2022-11-28T02:32:12.718Z,5.86
2022-11-28T02:34:48.545Z,5.86
2022-11-28T02:37:25.768Z,5.96
2022-11-28T02:40:00.835Z,5.88
2022-11-28T02:42:51.544Z,5.82
2022-11-28T02:45:28.870Z,5.86
2022-11-28T02:48:02.777Z,5.78
2022-11-28T02:50:35.699Z,5.77
2022-11-28T02:53:19.292Z,5.74
2022-11-28T02:55:46.059Z,5.73
2022-11-28T02:58:13.123Z,5.89
2022-11-28T03:00:44.466Z,5.86
2022-11-28T03:03:29.090Z,5.88
2022-11-28T03:06:01.836Z,5.85
2022-11-28T03:08:54.881Z,5.77
2022-11-28T03:11:33.140Z,5.77
2022-11-28T03:14:35.008Z,5.78
2022-11-28T03:17:07.591Z,5.60
2022-11-28T03:19:42.831Z,5.66
2022-11-28T03:22:25.189Z,5.60
2022-11-28T03:25:00.733Z,5.57
2022-11-28T03:27:42.020Z,5.65
2022-11-28T03:30:24.632Z,5.53
2022-11-28T03:32:54.880Z,5.54
2022-11-28T03:35:26.312Z,5.54
2022-11-28T03:38:02.217Z,5.30
2022-11-28T03:40:33.333Z,5.43
2022-11-28T03:43:12.563Z,5.45
2022-11-28T03:45:42.427Z,5.45
2022-11-28T03:48:15.763Z,5.37
2022-11-28T03:50:47.131Z,5.34
2022-11-28T03:53:30.763Z,5.45
2022-11-28T03:56:34.073Z,5.52
2022-11-28T03:59:06.452Z,5.52
2022-11-28T04:02:01.670Z,5.57
2022-11-28T04:04:47.956Z,5.55
2022-11-28T04:07:23.602Z,5.50
2022-11-28T04:09:54.418Z,5.45
2022-11-28T04:12:35.152Z,5.40
2022-11-28T04:15:11.755Z,5.52
2022-11-28T04:17:49.331Z,5.50
2022-11-28T04:20:32.723Z,5.42
2022-11-28T04:23:06.592Z,5.45
2022-11-28T04:25:37.418Z,5.38
2022-11-28T04:28:08.882Z,5.33
2022-11-28T04:30:37.592Z,5.43
2022-11-28T04:33:07.635Z,5.24
2022-11-28T04:35:40.385Z,5.37
2022-11-28T04:38:09.499Z,5.34
2022-11-28T04:40:41.406Z,5.31
2022-11-28T04:43:14.125Z,5.56
2022-11-28T04:45:51.329Z,5.42
2022-11-28T04:48:18.104Z,5.53
2022-11-28T04:51:16.844Z,5.39
2022-11-28T04:54:11.680Z,5.47
2022-11-28T04:56:44.834Z,5.39
2022-11-28T04:59:13.495Z,5.35
2022-11-28T05:01:41.807Z,5.31
2022-11-28T05:04:08.668Z,5.39
2022-11-28T05:06:36.464Z,5.32
2022-11-28T05:09:04.359Z,5.26
2022-11-28T05:11:31.476Z,5.32
2022-11-28T05:13:57.888Z,5.35
2022-11-28T05:16:24.386Z,5.37
2022-11-28T05:18:50.797Z,5.46
2022-11-28T05:21:17.200Z,5.46
2022-11-28T05:23:45.310Z,5.48
2022-11-28T05:26:17.750Z,5.50
2022-11-28T05:28:45.920Z,5.50
2022-11-28T05:31:13.134Z,5.86
2022-11-28T05:33:40.343Z,5.96
2022-11-28T05:36:12.795Z,5.75
2022-11-28T05:38:40.409Z,5.72
2022-11-28T05:41:07.170Z,5.65
2022-11-28T05:43:33.537Z,5.64
2022-11-28T05:45:59.970Z,5.53
2022-11-28T05:48:26.436Z,5.54
2022-11-28T05:50:52.947Z,5.49
2022-11-28T05:53:20.049Z,5.48
2022-11-28T05:55:47.164Z,5.64
2022-11-28T05:58:13.626Z,5.60
2022-11-28T06:00:40.159Z,5.61
2022-11-28T06:03:06.962Z,5.48
2022-11-28T06:05:42.821Z,5.38
2022-11-28T06:08:12.569Z,5.68
2022-11-28T06:10:39.152Z,5.61
2022-11-28T06:13:05.667Z,5.60
2022-11-28T06:15:37.578Z,5.55
2022-11-28T06:18:04.480Z,5.52
2022-11-28T06:20:30.856Z,5.53
2022-11-28T06:22:57.295Z,5.53
2022-11-28T06:25:23.652Z,5.58
2022-11-28T06:27:49.972Z,5.57
2022-11-28T06:30:16.683Z,5.51
2022-11-28T06:32:43.011Z,5.44
2022-11-28T06:35:09.622Z,5.39
2022-11-28T06:37:36.079Z,5.42
2022-11-28T06:40:02.608Z,5.39
2022-11-28T06:42:28.933Z,5.33
2022-11-28T06:44:55.328Z,5.46
2022-11-28T06:47:21.705Z,5.47
2022-11-28T06:49:49.121Z,5.59
2022-11-28T06:52:15.480Z,5.47
2022-11-28T06:54:42.253Z,5.56
2022-11-28T06:57:08.583Z,5.52
2022-11-28T06:59:34.967Z,5.62
2022-11-28T07:02:07.434Z,5.85
2022-11-28T07:04:34.307Z,5.83
2022-11-28T07:07:00.913Z,5.90
2022-11-28T07:09:27.639Z,5.80
2022-11-28T07:11:54.028Z,5.68
2022-11-28T07:14:20.460Z,5.67
2022-11-28T07:16:49.047Z,5.74
2022-11-28T07:19:16.247Z,5.75
2022-11-28T07:21:42.674Z,6.10
2022-11-28T07:24:09.043Z,6.01
2022-11-28T07:26:37.853Z,6.18
2022-11-28T07:29:06.242Z,6.20
2022-11-28T07:31:33.766Z,6.26
2022-11-28T07:34:03.263Z,6.20
2022-11-28T07:36:30.494Z,6.18
2022-11-28T07:39:00.056Z,6.52
2022-11-28T07:41:27.433Z,6.76
2022-11-28T07:43:56.751Z,6.47
2022-11-28T07:46:23.928Z,6.17
2022-11-28T07:48:50.351Z,6.08
2022-11-28T07:51:25.684Z,6.08
2022-11-28T07:53:52.199Z,6.12
2022-11-28T07:56:24.773Z,6.06
2022-11-28T07:58:51.595Z,6.07
2022-11-28T08:01:26.156Z,5.96
2022-11-28T08:03:53.138Z,6.03
2022-11-28T08:06:23.328Z,5.97
2022-11-28T08:08:50.632Z,5.90
2022-11-28T08:11:18.818Z,6.05
2022-11-28T08:13:45.847Z,6.12
2022-11-28T08:16:20.678Z,6.28
2022-11-28T08:18:48.437Z,6.23
2022-11-28T08:21:18.668Z,6.33
2022-11-28T08:23:45.687Z,6.30
2022-11-28T08:26:14.819Z,6.29
2022-11-28T08:28:41.656Z,6.35
2022-11-28T08:31:14.085Z,6.41
2022-11-28T08:33:41.138Z,6.40
2022-11-28T08:36:10.209Z,6.35
2022-11-28T08:38:37.294Z,6.26
2022-11-28T08:41:06.373Z,6.29
2022-11-28T08:43:34.685Z,6.32
2022-11-28T08:46:01.410Z,6.49
2022-11-28T08:48:27.921Z,6.35
2022-11-28T08:50:54.244Z,6.31
2022-11-28T08:53:20.653Z,6.33
2022-11-28T08:55:47.063Z,6.40
2022-11-28T08:58:14.764Z,6.34
2022-11-28T09:00:44.883Z,6.40
2022-11-28T09:03:15.288Z,6.42
2022-11-28T09:05:42.836Z,6.40
2022-11-28T09:08:11.758Z,6.51
2022-11-28T09:10:39.896Z,6.62
2022-11-28T09:13:07.069Z,6.65
2022-11-28T09:15:33.735Z,6.53
2022-11-28T09:18:00.385Z,6.58
2022-11-28T09:20:27.091Z,6.61
2022-11-28T09:22:53.472Z,6.77
2022-11-28T09:25:19.855Z,6.60
2022-11-28T09:27:46.264Z,6.65
2022-11-28T09:30:13.214Z,6.84
2022-11-28T09:32:39.601Z,6.71
2022-11-28T09:35:06.277Z,6.80
2022-11-28T09:37:32.712Z,7.15
2022-11-28T09:40:12.583Z,7.18
2022-11-28T09:42:43.950Z,7.02
2022-11-28T09:45:33.041Z,7.03
2022-11-28T09:48:25.480Z,7.12
2022-11-28T09:50:57.928Z,7.02
2022-11-28T09:53:34.456Z,6.97
2022-11-28T09:56:11.604Z,7.11
2022-11-28T09:58:55.336Z,7.01
2022-11-28T10:01:36.946Z,6.79
2022-11-28T10:04:25.102Z,6.73
2022-11-28T10:06:57.750Z,6.70
2022-11-28T10:09:29.899Z,6.65
2022-11-28T10:12:31.200Z,6.66
2022-11-28T10:15:21.895Z,6.93
2022-11-28T10:17:48.299Z,6.87
2022-11-28T10:20:41.465Z,6.84
2022-11-28T10:23:19.808Z,6.93
2022-11-28T10:26:02.159Z,6.79
2022-11-28T10:28:33.637Z,6.82
2022-11-28T10:31:06.817Z,6.76
2022-11-28T10:33:55.982Z,6.83
2022-11-28T10:36:27.716Z,6.90
2022-11-28T10:38:54.218Z,7.11
2022-11-28T10:41:23.471Z,7.12
2022-11-28T10:44:21.166Z,7.07
2022-11-28T10:46:57.352Z,7.08
2022-11-28T10:49:26.491Z,7.41
2022-11-28T10:52:17.376Z,7.32
2022-11-28T10:54:49.795Z,7.20
2022-11-28T10:57:37.941Z,7.17
2022-11-28T11:00:14.927Z,7.12
2022-11-28T11:02:46.413Z,7.19
2022-11-28T11:05:18.796Z,7.11
2022-11-28T11:07:51.827Z,7.16
2022-11-28T11:10:23.943Z,7.16
2022-11-28T11:12:52.665Z,7.36
2022-11-28T11:15:21.105Z,7.35
2022-11-28T11:17:47.689Z,7.40
2022-11-28T11:20:23.179Z,7.42
2022-11-28T11:22:57.655Z,7.63
2022-11-28T11:25:26.347Z,7.71
2022-11-28T11:27:55.855Z,7.51
2022-11-28T11:30:42.805Z,7.41
2022-11-28T11:33:16.777Z,7.39
2022-11-28T11:35:47.538Z,7.39
2022-11-28T11:38:16.707Z,7.34
2022-11-28T11:40:43.513Z,7.87
2022-11-28T11:43:28.476Z,7.57
2022-11-28T11:46:11.117Z,7.48
2022-11-28T11:48:52.211Z,7.39
2022-11-28T11:51:21.644Z,7.63
2022-11-28T11:53:48.501Z,7.45
2022-11-28T11:56:15.416Z,7.54
2022-11-28T11:58:49.511Z,7.43
2022-11-28T12:01:18.542Z,7.56
2022-11-28T12:04:23.688Z,7.86
2022-11-28T12:06:55.543Z,7.52
2022-11-28T12:09:35.131Z,7.91
2022-11-28T12:12:22.305Z,7.57
2022-11-28T12:14:49.913Z,7.61
2022-11-28T12:17:50.067Z,7.47
2022-11-28T12:20:33.231Z,7.69
2022-11-28T12:23:32.410Z,7.67
2022-11-28T12:26:07.261Z,7.62
2022-11-28T12:28:47.547Z,7.45
2022-11-28T12:31:46.212Z,7.62
2022-11-28T12:34:39.604Z,7.73
2022-11-28T12:37:14.571Z,7.61
2022-11-28T12:40:07.303Z,7.67
2022-11-28T12:42:41.426Z,7.64
2022-11-28T12:45:33.011Z,7.66
2022-11-28T12:48:08.621Z,7.79
2022-11-28T12:50:49.202Z,7.80
2022-11-28T12:53:18.529Z,7.83
2022-11-28T12:55:56.497Z,7.69
2022-11-28T12:58:48.532Z,7.66
2022-11-28T13:01:27.231Z,7.76
2022-11-28T13:04:12.057Z,7.61
2022-11-28T13:07:08.225Z,7.62
2022-11-28T13:09:43.611Z,7.71
2022-11-28T13:12:25.657Z,8.09
2022-11-28T13:14:57.595Z,7.90
2022-11-28T13:17:39.072Z,7.95
2022-11-28T13:20:29.599Z,8.06
2022-11-28T13:23:08.207Z,8.00
2022-11-28T13:25:47.276Z,8.18
2022-11-28T13:28:32.293Z,7.96
2022-11-28T13:31:20.153Z,8.10
2022-11-28T13:33:55.365Z,7.96
2022-11-28T13:39:33.720Z,7.88
2022-11-28T13:42:59.371Z,7.91
2022-11-28T13:45:28.376Z,7.87
2022-11-28T13:47:58.629Z,8.15
2022-11-28T13:50:25.112Z,8.03
2022-11-28T13:52:58.990Z,8.10
2022-11-28T13:55:39.293Z,7.96
2022-11-28T13:58:25.417Z,8.55
2022-11-28T14:01:17.637Z,8.08
2022-11-28T14:03:52.080Z,8.02
2022-11-28T14:06:22.412Z,8.18
2022-11-28T14:09:03.608Z,8.00
2022-11-28T14:11:54.972Z,8.31
2022-11-28T14:14:56.974Z,8.10
2022-11-28T14:17:40.039Z,8.26
2022-11-28T14:20:30.956Z,8.18
2022-11-28T14:23:21.422Z,8.06
2022-11-28T14:25:54.702Z,8.37
2022-11-28T14:28:30.496Z,8.29
2022-11-28T14:31:22.046Z,8.61
2022-11-28T14:33:48.463Z,8.25
2022-11-28T14:36:34.023Z,8.21
2022-11-28T14:39:08.065Z,7.94
2022-11-28T14:42:06.554Z,7.95
2022-11-28T14:45:01.938Z,7.87
2022-11-28T14:47:39.383Z,8.12
2022-11-28T14:50:05.750Z,8.34
2022-11-28T14:52:41.417Z,8.43
2022-11-28T14:55:08.077Z,8.49
2022-11-28T14:57:37.389Z,8.30
2022-11-28T15:00:13.397Z,8.31
2022-11-28T15:02:48.759Z,8.21
2022-11-28T15:05:22.207Z,8.03
2022-11-28T15:08:10.132Z,7.92
2022-11-28T15:11:07.745Z,7.91
2022-11-28T15:13:43.209Z,7.93
2022-11-28T15:16:15.239Z,8.05
2022-11-28T15:19:07.688Z,7.95
2022-11-28T15:21:43.799Z,7.93
2022-11-28T15:24:30.589Z,7.92
2022-11-28T15:27:15.712Z,7.80
2022-11-28T15:29:42.127Z,7.75
2022-11-28T15:32:14.684Z,7.76
2022-11-28T15:34:41.348Z,7.73
2022-11-28T15:37:17.409Z,7.73
2022-11-28T15:39:47.763Z,7.72
2022-11-28T15:42:32.417Z,7.69
2022-11-28T15:45:05.240Z,7.65
2022-11-28T15:47:31.956Z,7.66
2022-11-28T15:50:16.955Z,7.73
2022-11-28T15:53:16.853Z,7.69
2022-11-28T15:55:44.006Z,7.72
2022-11-28T15:58:19.220Z,7.67
2022-11-28T16:00:50.528Z,7.60
2022-11-28T16:03:22.610Z,7.62
2022-11-28T16:05:52.770Z,7.73
2022-11-28T16:08:25.076Z,7.86
2022-11-28T16:10:51.547Z,7.84
2022-11-28T16:13:21.239Z,7.84
2022-11-28T16:15:50.493Z,7.70
2022-11-28T16:18:17.253Z,7.72
2022-11-28T16:20:44.008Z,7.82
2022-11-28T16:23:20.176Z,7.79
2022-11-28T16:25:58.983Z,7.69
2022-11-28T16:28:40.632Z,7.67
2022-11-28T16:31:20.357Z,7.59
2022-11-28T16:33:47.732Z,7.71
2022-11-28T16:36:36.873Z,7.97
2022-11-28T16:39:12.380Z,8.13
2022-11-28T16:42:07.386Z,7.83
2022-11-28T16:44:34.063Z,7.86
2022-11-28T16:47:00.799Z,7.75
2022-11-28T16:49:35.933Z,7.70
2022-11-28T16:52:21.040Z,7.71
2022-11-28T16:54:48.675Z,7.73
2022-11-28T16:57:15.751Z,7.67
2022-11-28T16:59:44.446Z,7.60
2022-11-28T17:02:26.746Z,7.58
2022-11-28T17:04:53.867Z,7.59
2022-11-28T17:07:23.079Z,7.59
2022-11-28T17:09:50.666Z,7.60
2022-11-28T17:12:37.039Z,7.51
2022-11-28T17:15:03.573Z,7.48
2022-11-28T17:17:30.476Z,7.53
2022-11-28T17:19:56.876Z,7.53
2022-11-28T17:22:26.694Z,7.49
2022-11-28T17:24:59.362Z,7.49
2022-11-28T17:27:25.768Z,7.52
2022-11-28T17:29:52.167Z,7.55
2022-11-28T17:32:18.819Z,7.53
2022-11-28T17:34:46.036Z,7.63
2022-11-28T17:37:12.815Z,7.69
2022-11-28T17:39:39.187Z,7.56
2022-11-28T17:42:06.371Z,7.55
2022-11-28T17:44:36.216Z,7.60
2022-11-28T17:47:03.576Z,7.71
2022-11-28T17:49:30.883Z,7.79
2022-11-28T17:51:57.396Z,7.75
2022-11-28T17:54:25.280Z,7.63
2022-11-28T17:56:52.958Z,7.66
2022-11-28T17:59:21.216Z,8.09
2022-11-28T18:01:48.365Z,8.15
2022-11-28T18:04:14.938Z,8.13
2022-11-28T18:06:45.811Z,8.16
2022-11-28T18:09:13.534Z,8.03
2022-11-28T18:11:41.662Z,7.87
2022-11-28T18:14:08.857Z,7.87
2022-11-28T18:16:40.094Z,7.84
2022-11-28T18:19:06.871Z,7.74
2022-11-28T18:21:33.264Z,7.69
2022-11-28T18:23:59.639Z,7.70
2022-11-28T18:26:26.460Z,7.72
2022-11-28T18:28:53.709Z,7.82
2022-11-28T18:31:24.167Z,7.78
2022-11-28T18:33:51.428Z,7.77
2022-11-28T18:36:26.394Z,7.72
2022-11-28T18:39:00.266Z,7.68
2022-11-28T18:41:27.393Z,7.71
2022-11-28T18:43:58.444Z,7.73
2022-11-28T18:46:25.968Z,7.72
2022-11-28T18:48:53.408Z,7.65
2022-11-28T18:51:28.792Z,7.77
2022-11-28T18:53:56.357Z,7.73
2022-11-28T18:56:23.061Z,7.82
2022-11-28T18:58:51.811Z,7.85
2022-11-28T19:01:19.723Z,7.77
2022-11-28T19:03:54.952Z,8.06
2022-11-28T19:06:22.655Z,7.82
2022-11-28T19:08:53.243Z,7.61
2022-11-28T19:11:20.054Z,7.57
2022-11-28T19:13:47.723Z,7.73
2022-11-28T19:16:16.814Z,7.64
2022-11-28T19:18:43.933Z,7.62
2022-11-28T19:21:20.092Z,7.59
2022-11-28T19:23:49.785Z,7.61
2022-11-28T19:26:19.308Z,7.52
2022-11-28T19:28:46.647Z,7.59
2022-11-28T19:31:21.338Z,7.52
2022-11-28T19:34:02.205Z,7.52
2022-11-28T19:36:40.981Z,7.52
2022-11-28T19:39:09.456Z,7.53
2022-11-28T19:41:35.863Z,7.54
2022-11-28T19:44:02.288Z,7.57
2022-11-28T19:46:35.107Z,7.54
2022-11-28T19:49:02.556Z,7.61
2022-11-28T19:51:28.947Z,7.58
2022-11-28T19:53:59.880Z,7.53
2022-11-28T19:56:29.651Z,7.61
2022-11-28T19:58:56.012Z,7.62
2022-11-28T20:01:23.761Z,7.57
2022-11-28T20:03:51.838Z,7.55
2022-11-28T20:06:23.787Z,7.63
2022-11-28T20:08:51.692Z,7.57
2022-11-28T20:11:21.153Z,7.54
2022-11-28T20:13:47.636Z,7.56
2022-11-28T20:16:15.893Z,7.57
2022-11-28T20:18:43.903Z,7.90
2022-11-28T20:21:15.754Z,7.90
2022-11-28T20:23:47.884Z,7.87
2022-11-28T20:26:15.643Z,7.90
2022-11-28T20:28:43.194Z,7.76
2022-11-28T20:31:21.261Z,7.75
2022-11-28T20:33:49.302Z,7.76
2022-11-28T20:36:18.136Z,7.80
2022-11-28T20:38:44.694Z,7.69
2022-11-28T20:41:13.590Z,7.69
2022-11-28T20:43:41.145Z,7.70
2022-11-28T20:46:13.716Z,7.76
2022-11-28T20:48:41.011Z,7.75
2022-11-28T20:51:15.715Z,7.80
2022-11-28T20:53:42.331Z,8.00
2022-11-28T20:56:12.483Z,7.86
2022-11-28T20:58:38.982Z,7.83
2022-11-28T21:01:05.961Z,7.87
2022-11-28T21:03:32.899Z,7.77
2022-11-28T21:06:01.266Z,7.71
2022-11-28T21:08:30.337Z,7.71
2022-11-28T21:10:56.800Z,7.70
2022-11-28T21:13:23.183Z,7.68
2022-11-28T21:15:49.757Z,7.79
2022-11-28T21:18:16.827Z,7.73
2022-11-28T21:20:45.931Z,7.72
2022-11-28T21:23:13.783Z,7.72
2022-11-28T21:25:41.475Z,7.73
2022-11-28T21:28:09.491Z,7.89
2022-11-28T21:30:44.383Z,7.89
2022-11-28T21:33:12.271Z,7.69
2022-11-28T21:35:39.548Z,7.75
2022-11-28T21:38:07.105Z,7.72
2022-11-28T21:40:33.877Z,7.89
2022-11-28T21:43:00.279Z,7.76
2022-11-28T21:45:26.728Z,7.73
2022-11-28T21:47:53.156Z,7.83
2022-11-28T21:50:19.567Z,7.76
2022-11-28T21:52:45.916Z,7.71
2022-11-28T21:55:12.321Z,7.74
2022-11-28T21:57:38.815Z,7.72
2022-11-28T22:00:06.027Z,7.68
2022-11-28T22:02:32.458Z,7.69
2022-11-28T22:04:59.964Z,7.71
2022-11-28T22:07:26.438Z,7.72
2022-11-28T22:09:54.055Z,7.68
2022-11-28T22:12:20.454Z,7.62
2022-11-28T22:14:47.175Z,7.65
2022-11-28T22:17:13.868Z,7.61
2022-11-28T22:19:41.343Z,7.94
2022-11-28T22:22:07.675Z,7.97
2022-11-28T22:24:34.026Z,7.96
2022-11-28T22:27:00.464Z,8.22
2022-11-28T22:29:26.894Z,7.97
2022-11-28T22:31:53.544Z,7.73
2022-11-28T22:34:19.958Z,8.16
2022-11-28T22:36:46.314Z,8.38
2022-11-28T22:39:12.700Z,8.30
2022-11-28T22:41:39.304Z,8.58
2022-11-28T22:44:05.627Z,8.53
2022-11-28T22:46:32.909Z,8.21
2022-11-28T22:49:00.388Z,8.47
2022-11-28T22:51:28.308Z,8.57
2022-11-28T22:53:56.953Z,8.43
2022-11-28T22:56:23.823Z,8.01
2022-11-28T22:58:50.683Z,7.80
2022-11-28T23:01:29.127Z,7.70
2022-11-28T23:03:56.093Z,7.63
2022-11-28T23:06:25.794Z,7.62
2022-11-28T23:08:52.877Z,7.57
2022-11-28T23:11:22.624Z,7.55
2022-11-28T23:13:50.299Z,7.63
2022-11-28T23:16:25.272Z,7.56
2022-11-28T23:18:54.147Z,7.61
2022-11-28T23:21:22.868Z,7.68
2022-11-28T23:23:50.052Z,7.71
2022-11-28T23:26:19.120Z,7.82
2022-11-28T23:28:46.286Z,7.78
2022-11-28T23:31:32.986Z,7.82
2022-11-28T23:34:01.672Z,7.90
2022-11-28T23:36:41.712Z,7.87
2022-11-28T23:39:17.468Z,8.31
2022-11-28T23:41:44.622Z,7.98
2022-11-28T23:44:12.516Z,7.86
2022-11-28T23:46:39.538Z,8.11
2022-11-28T23:49:06.297Z,8.03
2022-11-28T23:51:33.044Z,8.08
2022-11-28T23:53:59.478Z,7.90
2022-11-28T23:56:32.277Z,8.11
2022-11-28T23:59:01.244Z,8.03
